Bookmark and Share
Track history (hours):
 

Nor Cape

Last reported at 2013-Apr-27 03:05 UTC. Time now 2014-Apr-20 16:07 UTC.
Position N 59°52' E 030°13'.
Warning: this ship's position is months out of date.

Length 124 m; draft 6.6 m.

Type: Cargo ship. MMSI: 325447000.

NotesDate/timePositionNaut miles runAvg speedWind from/ knotsBaromVisibWave heightAir tempDewpointWater temp
2013-Apr-27 03:05N 59°52' E 030°13'0 0.1
2013-Apr-27 02:32N 59°52' E 030°13'5 5.1
2013-Apr-27 01:33N 59°55' E 030°04'450 9.2
2013-Apr-25 00:32N 54°54' E 019°43'1312.6
2013-Apr-24 23:31N 54°41' E 019°47'  
2013-Apr-21 16:29N 54°41' E 020°18'7 6.4
2013-Apr-21 15:24N 54°39' E 020°06'7 8.2
2013-Apr-21 14:34N 54°38' E 019°55'6 5.8
2013-Apr-21 13:34N 54°41' E 019°46'4 4.2
2013-Apr-21 12:34N 54°43' E 019°40'1313.0
2013-Apr-21 11:34N 54°48' E 019°19'1313.4
2013-Apr-21 10:34N 54°52' E 018°57'1313.3
2013-Apr-21 09:33N 54°57' E 018°35'1313.4
2013-Apr-21 08:33N 55°01' E 018°13'1413.4
2013-Apr-21 07:29N 55°04' E 017°49'1913.6
2013-Apr-21 06:04N 55°08' E 017°16'713.8
2013-Apr-21 05:32N 55°10' E 017°03'4113.9
2013-Apr-21 02:33N 55°18' E 015°52'1413.9
2013-Apr-21 01:33N 55°20' E 015°28'1413.7
2013-Apr-21 00:34N 55°22' E 015°04'1413.8
2013-Apr-20 23:33N 55°23' E 014°40'1414.4
2013-Apr-20 22:34N 55°12' E 014°23'1413.8
2013-Apr-20 21:33N 55°02' E 014°06'1413.7
2013-Apr-20 20:33N 54°56' E 013°44'1414.1
2013-Apr-20 19:33N 54°52' E 013°21'1413.9
2013-Apr-20 18:33N 54°47' E 012°58'1413.5
2013-Apr-20 17:33N 54°41' E 012°37'1413.8
2013-Apr-20 16:33N 54°32' E 012°19'1312.8
2013-Apr-20 15:33N 54°25' E 012°01'1413.9
2013-Apr-20 14:34N 54°27' E 011°38'1414.4
2013-Apr-20 13:33N 54°34' E 011°16'1413.8
2013-Apr-20 12:33N 54°41' E 010°55'1313.0
2013-Apr-20 11:33N 54°54' E 010°53'10713.0
2013-Apr-20 03:20N 56°37' E 011°43'1013.0
2013-Apr-20 02:34N 56°46' E 011°50'1414.2
2013-Apr-20 01:33N 56°59' E 011°40'1414.1
2013-Apr-20 00:33N 57°13' E 011°33'1413.7
2013-Apr-19 23:33N 57°26' E 011°24'1313.4
2013-Apr-19 22:33N 57°36' E 011°08'1313.5
2013-Apr-19 21:34N 57°45' E 010°49'1413.9
2013-Apr-19 20:34N 57°46' E 010°23'45513.6
2013-Apr-18 11:09N 51°42' E 002°31'2130.5
2013-Apr-18 10:27N 51°58' E 002°53'1213.7
2013-Apr-18 09:33N 51°49' E 002°40'1414.1
2013-Apr-18 08:32N 51°38' E 002°26'1514.2
2013-Apr-18 07:28N 51°25' E 002°12'1414.4
2013-Apr-18 06:32N 51°13' E 002°01'5914.8
2013-Apr-18 02:33N 50°31' E 000°57'1514.7
2013-Apr-18 01:33N 50°27' E 000°35'10813.3
2013-Apr-17 17:28N 49°57' W 002°07'1511.9
2013-Apr-17 16:13N 49°53' W 002°29'1012.7
2013-Apr-17 15:24N 49°50' W 002°45'1313.1
2013-Apr-17 14:23N 49°45' W 003°03'1413.3
2013-Apr-17 13:21N 49°38' W 003°22'1113.3
2013-Apr-17 12:30N 49°32' W 003°37'  

Dump ship's entire track history

sailing weather and tide predictions

Nor Cape — J7BP8 — position and weather